sensor_id;sensor_type;location;lat;lon;timestamp;P1;durP1;ratioP1;P2;durP2;ratioP2
76204;SDS011;64986;55.672;37.628;2023-01-16T00:00:00;30.30;;;9.80;;
76204;SDS011;64986;55.672;37.628;2023-01-16T00:02:26;23.17;;;8.90;;
76204;SDS011;64986;55.672;37.628;2023-01-16T00:04:51;28.23;;;10.75;;
76204;SDS011;64986;55.672;37.628;2023-01-16T00:07:17;31.05;;;11.52;;
76204;SDS011;64986;55.672;37.628;2023-01-16T00:09:43;30.15;;;9.05;;
76204;SDS011;64986;55.672;37.628;2023-01-16T00:12:08;24.15;;;10.10;;
76204;SDS011;64986;55.672;37.628;2023-01-16T00:14:34;28.10;;;11.70;;
76204;SDS011;64986;55.672;37.628;2023-01-16T00:16:59;23.08;;;8.80;;
76204;SDS011;64986;55.672;37.628;2023-01-16T00:19:25;28.55;;;10.40;;
76204;SDS011;64986;55.672;37.628;2023-01-16T00:21:51;22.63;;;9.32;;
76204;SDS011;64986;55.672;37.628;2023-01-16T00:24:16;31.58;;;11.18;;
76204;SDS011;64986;55.672;37.628;2023-01-16T00:26:42;22.75;;;10.45;;
76204;SDS011;64986;55.672;37.628;2023-01-16T00:29:07;22.85;;;9.63;;
76204;SDS011;64986;55.672;37.628;2023-01-16T00:31:32;31.10;;;10.48;;
76204;SDS011;64986;55.672;37.628;2023-01-16T00:33:58;30.42;;;11.35;;
76204;SDS011;64986;55.672;37.628;2023-01-16T00:36:23;25.77;;;10.52;;
76204;SDS011;64986;55.672;37.628;2023-01-16T00:38:49;25.63;;;10.00;;
76204;SDS011;64986;55.672;37.628;2023-01-16T00:41:14;29.08;;;9.85;;
76204;SDS011;64986;55.672;37.628;2023-01-16T00:43:40;28.13;;;11.65;;
76204;SDS011;64986;55.672;37.628;2023-01-16T00:46:06;25.67;;;10.82;;
76204;SDS011;64986;55.672;37.628;2023-01-16T00:48:31;37.95;;;11.80;;
76204;SDS011;64986;55.672;37.628;2023-01-16T00:50:57;30.67;;;10.90;;
76204;SDS011;64986;55.672;37.628;2023-01-16T00:53:23;23.33;;;9.02;;
76204;SDS011;64986;55.672;37.628;2023-01-16T00:55:50;30.58;;;10.40;;
76204;SDS011;64986;55.672;37.628;2023-01-16T00:58:16;22.88;;;9.13;;
76204;SDS011;64986;55.672;37.628;2023-01-16T01:00:42;30.02;;;10.85;;
76204;SDS011;64986;55.672;37.628;2023-01-16T01:03:07;29.13;;;10.48;;
76204;SDS011;64986;55.672;37.628;2023-01-16T01:05:36;36.35;;;11.07;;
76204;SDS011;64986;55.672;37.628;2023-01-16T01:08:03;28.55;;;11.80;;
76204;SDS011;64986;55.672;37.628;2023-01-16T01:10:29;26.85;;;11.50;;
76204;SDS011;64986;55.672;37.628;2023-01-16T01:12:55;26.02;;;9.50;;
76204;SDS011;64986;55.672;37.628;2023-01-16T01:15:21;21.75;;;9.88;;
76204;SDS011;64986;55.672;37.628;2023-01-16T01:17:47;25.25;;;12.15;;
76204;SDS011;64986;55.672;37.628;2023-01-16T01:20:13;31.38;;;11.15;;
76204;SDS011;64986;55.672;37.628;2023-01-16T01:22:38;31.58;;;11.55;;
76204;SDS011;64986;55.672;37.628;2023-01-16T01:25:04;26.38;;;9.32;;
76204;SDS011;64986;55.672;37.628;2023-01-16T01:27:30;26.85;;;9.98;;
76204;SDS011;64986;55.672;37.628;2023-01-16T01:29:55;22.27;;;9.88;;
76204;SDS011;64986;55.672;37.628;2023-01-16T01:32:21;26.70;;;11.20;;
76204;SDS011;64986;55.672;37.628;2023-01-16T01:34:46;22.45;;;9.82;;
76204;SDS011;64986;55.672;37.628;2023-01-16T01:37:12;27.38;;;10.43;;
76204;SDS011;64986;55.672;37.628;2023-01-16T01:39:37;22.77;;;10.07;;
76204;SDS011;64986;55.672;37.628;2023-01-16T01:42:03;24.20;;;9.02;;
76204;SDS011;64986;55.672;37.628;2023-01-16T01:47:22;27.00;;;11.45;;
76204;SDS011;64986;55.672;37.628;2023-01-16T01:49:51;22.10;;;9.48;;
76204;SDS011;64986;55.672;37.628;2023-01-16T01:52:19;27.55;;;11.18;;
76204;SDS011;64986;55.672;37.628;2023-01-16T01:54:49;33.95;;;10.93;;
76204;SDS011;64986;55.672;37.628;2023-01-16T01:57:21;34.05;;;12.57;;
76204;SDS011;64986;55.672;37.628;2023-01-16T02:00:00;24.35;;;10.38;;
76204;SDS011;64986;55.672;37.628;2023-01-16T02:02:34;24.33;;;8.32;;
76204;SDS011;64986;55.672;37.628;2023-01-16T02:05:04;24.75;;;10.43;;
76204;SDS011;64986;55.672;37.628;2023-01-16T02:07:33;28.02;;;9.50;;
76204;SDS011;64986;55.672;37.628;2023-01-16T02:10:02;29.80;;;10.70;;
76204;SDS011;64986;55.672;37.628;2023-01-16T02:12:51;28.48;;;9.50;;
76204;SDS011;64986;55.672;37.628;2023-01-16T02:15:19;35.80;;;10.68;;
76204;SDS011;64986;55.672;37.628;2023-01-16T02:17:45;27.55;;;9.85;;
76204;SDS011;64986;55.672;37.628;2023-01-16T02:20:29;21.85;;;9.13;;
76204;SDS011;64986;55.672;37.628;2023-01-16T02:26:06;30.17;;;9.55;;
76204;SDS011;64986;55.672;37.628;2023-01-16T02:34:43;24.30;;;10.57;;
76204;SDS011;64986;55.672;37.628;2023-01-16T02:40:07;20.85;;;8.18;;
76204;SDS011;64986;55.672;37.628;2023-01-16T02:54:08;26.17;;;11.07;;
76204;SDS011;64986;55.672;37.628;2023-01-16T02:56:43;34.25;;;10.77;;
76204;SDS011;64986;55.672;37.628;2023-01-16T02:59:14;25.80;;;7.35;;
76204;SDS011;64986;55.672;37.628;2023-01-16T03:01:41;25.38;;;9.02;;
76204;SDS011;64986;55.672;37.628;2023-01-16T03:10:00;21.50;;;8.40;;
76204;SDS011;64986;55.672;37.628;2023-01-16T03:15:19;24.02;;;7.90;;
76204;SDS011;64986;55.672;37.628;2023-01-16T03:26:30;34.70;;;8.60;;
76204;SDS011;64986;55.672;37.628;2023-01-16T03:29:03;27.23;;;8.52;;
76204;SDS011;64986;55.672;37.628;2023-01-16T03:32:13;28.90;;;8.70;;
76204;SDS011;64986;55.672;37.628;2023-01-16T03:34:36;28.25;;;8.95;;
76204;SDS011;64986;55.672;37.628;2023-01-16T03:37:13;19.92;;;8.30;;
76204;SDS011;64986;55.672;37.628;2023-01-16T03:40:06;28.10;;;9.95;;
76204;SDS011;64986;55.672;37.628;2023-01-16T03:42:38;32.63;;;9.90;;
76204;SDS011;64986;55.672;37.628;2023-01-16T03:45:07;38.80;;;8.80;;
76204;SDS011;64986;55.672;37.628;2023-01-16T03:47:38;40.50;;;11.32;;
76204;SDS011;64986;55.672;37.628;2023-01-16T03:50:12;23.63;;;8.23;;
76204;SDS011;64986;55.672;37.628;2023-01-16T03:52:39;29.75;;;9.48;;
76204;SDS011;64986;55.672;37.628;2023-01-16T03:57:38;25.30;;;8.27;;
76204;SDS011;64986;55.672;37.628;2023-01-16T04:00:08;30.02;;;8.88;;
76204;SDS011;64986;55.672;37.628;2023-01-16T04:02:40;25.13;;;8.98;;
76204;SDS011;64986;55.672;37.628;2023-01-16T04:05:12;28.10;;;10.25;;
76204;SDS011;64986;55.672;37.628;2023-01-16T04:07:46;24.23;;;8.55;;
76204;SDS011;64986;55.672;37.628;2023-01-16T04:10:36;26.67;;;8.93;;
76204;SDS011;64986;55.672;37.628;2023-01-16T04:13:06;33.28;;;8.30;;
76204;SDS011;64986;55.672;37.628;2023-01-16T04:15:35;35.55;;;11.70;;
76204;SDS011;64986;55.672;37.628;2023-01-16T04:18:04;29.30;;;9.55;;
76204;SDS011;64986;55.672;37.628;2023-01-16T04:20:31;27.95;;;9.35;;
76204;SDS011;64986;55.672;37.628;2023-01-16T04:22:58;29.33;;;10.07;;
76204;SDS011;64986;55.672;37.628;2023-01-16T04:25:23;31.52;;;8.60;;
76204;SDS011;64986;55.672;37.628;2023-01-16T04:27:49;41.58;;;10.45;;
76204;SDS011;64986;55.672;37.628;2023-01-16T04:30:14;34.58;;;7.93;;
76204;SDS011;64986;55.672;37.628;2023-01-16T04:32:40;23.65;;;8.93;;
76204;SDS011;64986;55.672;37.628;2023-01-16T04:35:06;29.05;;;10.48;;
76204;SDS011;64986;55.672;37.628;2023-01-16T04:37:32;30.13;;;9.90;;
76204;SDS011;64986;55.672;37.628;2023-01-16T04:39:58;19.77;;;7.50;;
76204;SDS011;64986;55.672;37.628;2023-01-16T04:42:24;29.60;;;9.70;;
76204;SDS011;64986;55.672;37.628;2023-01-16T04:44:50;26.65;;;7.70;;
76204;SDS011;64986;55.672;37.628;2023-01-16T04:47:16;27.73;;;9.75;;
76204;SDS011;64986;55.672;37.628;2023-01-16T04:49:41;26.85;;;9.23;;
76204;SDS011;64986;55.672;37.628;2023-01-16T04:52:07;34.03;;;10.20;;
76204;SDS011;64986;55.672;37.628;2023-01-16T04:54:33;38.95;;;9.68;;
76204;SDS011;64986;55.672;37.628;2023-01-16T04:56:58;29.88;;;9.90;;
76204;SDS011;64986;55.672;37.628;2023-01-16T04:59:26;26.65;;;8.93;;
76204;SDS011;64986;55.672;37.628;2023-01-16T05:01:52;26.40;;;7.43;;
76204;SDS011;64986;55.672;37.628;2023-01-16T05:04:17;25.95;;;9.45;;
76204;SDS011;64986;55.672;37.628;2023-01-16T05:06:43;26.88;;;9.73;;
76204;SDS011;64986;55.672;37.628;2023-01-16T05:09:08;30.25;;;9.38;;
76204;SDS011;64986;55.672;37.628;2023-01-16T05:11:34;38.42;;;10.50;;
76204;SDS011;64986;55.672;37.628;2023-01-16T05:14:00;31.15;;;9.93;;
76204;SDS011;64986;55.672;37.628;2023-01-16T05:16:26;28.95;;;8.00;;
76204;SDS011;64986;55.672;37.628;2023-01-16T05:18:52;25.13;;;7.75;;
76204;SDS011;64986;55.672;37.628;2023-01-16T05:21:18;23.55;;;7.70;;
76204;SDS011;64986;55.672;37.628;2023-01-16T05:23:43;30.13;;;9.57;;
76204;SDS011;64986;55.672;37.628;2023-01-16T05:26:09;30.30;;;8.32;;
76204;SDS011;64986;55.672;37.628;2023-01-16T05:28:35;27.05;;;8.27;;
76204;SDS011;64986;55.672;37.628;2023-01-16T05:31:01;23.83;;;8.52;;
76204;SDS011;64986;55.672;37.628;2023-01-16T05:33:27;29.48;;;9.02;;
76204;SDS011;64986;55.672;37.628;2023-01-16T05:35:53;30.40;;;9.38;;
76204;SDS011;64986;55.672;37.628;2023-01-16T05:38:19;27.45;;;9.10;;
76204;SDS011;64986;55.672;37.628;2023-01-16T05:40:46;29.77;;;7.93;;
76204;SDS011;64986;55.672;37.628;2023-01-16T05:43:12;32.20;;;9.23;;
76204;SDS011;64986;55.672;37.628;2023-01-16T05:45:37;32.33;;;8.40;;
76204;SDS011;64986;55.672;37.628;2023-01-16T05:48:03;23.98;;;8.00;;
76204;SDS011;64986;55.672;37.628;2023-01-16T05:50:29;32.45;;;8.95;;
76204;SDS011;64986;55.672;37.628;2023-01-16T05:52:54;34.42;;;8.82;;
76204;SDS011;64986;55.672;37.628;2023-01-16T05:55:20;34.92;;;8.52;;
76204;SDS011;64986;55.672;37.628;2023-01-16T05:57:46;30.98;;;9.15;;
76204;SDS011;64986;55.672;37.628;2023-01-16T06:00:11;25.17;;;8.50;;
76204;SDS011;64986;55.672;37.628;2023-01-16T06:02:38;34.70;;;9.75;;
76204;SDS011;64986;55.672;37.628;2023-01-16T06:05:03;41.67;;;11.60;;
76204;SDS011;64986;55.672;37.628;2023-01-16T06:07:30;30.00;;;9.48;;
76204;SDS011;64986;55.672;37.628;2023-01-16T06:09:55;24.75;;;7.32;;
76204;SDS011;64986;55.672;37.628;2023-01-16T06:12:20;22.75;;;7.85;;
76204;SDS011;64986;55.672;37.628;2023-01-16T06:14:46;32.28;;;9.70;;
76204;SDS011;64986;55.672;37.628;2023-01-16T06:17:12;29.42;;;9.05;;
76204;SDS011;64986;55.672;37.628;2023-01-16T06:19:41;35.22;;;9.45;;
76204;SDS011;64986;55.672;37.628;2023-01-16T06:22:07;27.77;;;9.75;;
76204;SDS011;64986;55.672;37.628;2023-01-16T06:24:32;21.73;;;8.32;;
76204;SDS011;64986;55.672;37.628;2023-01-16T06:26:58;17.45;;;6.28;;
76204;SDS011;64986;55.672;37.628;2023-01-16T06:29:24;25.88;;;7.15;;
76204;SDS011;64986;55.672;37.628;2023-01-16T06:31:49;36.13;;;9.27;;
76204;SDS011;64986;55.672;37.628;2023-01-16T06:34:15;33.83;;;8.95;;
76204;SDS011;64986;55.672;37.628;2023-01-16T06:36:41;33.35;;;10.02;;
76204;SDS011;64986;55.672;37.628;2023-01-16T06:39:09;37.28;;;9.35;;
76204;SDS011;64986;55.672;37.628;2023-01-16T06:41:36;35.72;;;7.88;;
76204;SDS011;64986;55.672;37.628;2023-01-16T06:44:01;27.27;;;8.63;;
76204;SDS011;64986;55.672;37.628;2023-01-16T06:46:27;27.45;;;7.43;;
76204;SDS011;64986;55.672;37.628;2023-01-16T06:48:52;32.60;;;7.22;;
76204;SDS011;64986;55.672;37.628;2023-01-16T06:51:18;25.42;;;7.57;;
76204;SDS011;64986;55.672;37.628;2023-01-16T06:53:43;29.45;;;8.30;;
76204;SDS011;64986;55.672;37.628;2023-01-16T06:56:09;31.38;;;8.75;;
76204;SDS011;64986;55.672;37.628;2023-01-16T06:58:34;21.88;;;5.93;;
76204;SDS011;64986;55.672;37.628;2023-01-16T07:01:00;29.52;;;8.32;;
76204;SDS011;64986;55.672;37.628;2023-01-16T07:03:25;25.48;;;8.07;;
76204;SDS011;64986;55.672;37.628;2023-01-16T07:05:51;23.17;;;6.53;;
76204;SDS011;64986;55.672;37.628;2023-01-16T07:08:16;17.85;;;7.82;;
76204;SDS011;64986;55.672;37.628;2023-01-16T07:10:42;25.33;;;6.55;;
76204;SDS011;64986;55.672;37.628;2023-01-16T07:13:07;15.15;;;5.40;;
76204;SDS011;64986;55.672;37.628;2023-01-16T07:15:35;27.50;;;6.63;;
76204;SDS011;64986;55.672;37.628;2023-01-16T07:18:36;21.15;;;7.00;;
76204;SDS011;64986;55.672;37.628;2023-01-16T07:21:17;28.23;;;7.50;;
76204;SDS011;64986;55.672;37.628;2023-01-16T07:24:05;24.23;;;6.88;;
76204;SDS011;64986;55.672;37.628;2023-01-16T07:26:33;24.77;;;7.45;;
76204;SDS011;64986;55.672;37.628;2023-01-16T07:29:02;21.30;;;6.75;;
76204;SDS011;64986;55.672;37.628;2023-01-16T07:31:28;18.50;;;6.28;;
76204;SDS011;64986;55.672;37.628;2023-01-16T07:33:56;18.95;;;5.72;;
76204;SDS011;64986;55.672;37.628;2023-01-16T07:36:21;19.70;;;5.05;;
76204;SDS011;64986;55.672;37.628;2023-01-16T07:38:47;18.27;;;6.22;;
76204;SDS011;64986;55.672;37.628;2023-01-16T07:41:13;20.42;;;7.30;;
76204;SDS011;64986;55.672;37.628;2023-01-16T07:43:39;32.53;;;7.63;;
76204;SDS011;64986;55.672;37.628;2023-01-16T07:46:05;21.02;;;6.50;;
76204;SDS011;64986;55.672;37.628;2023-01-16T07:48:30;22.70;;;6.47;;
76204;SDS011;64986;55.672;37.628;2023-01-16T07:50:56;19.67;;;5.70;;
76204;SDS011;64986;55.672;37.628;2023-01-16T07:53:24;26.33;;;7.63;;
76204;SDS011;64986;55.672;37.628;2023-01-16T07:55:59;15.27;;;4.97;;
76204;SDS011;64986;55.672;37.628;2023-01-16T07:58:27;18.27;;;6.03;;
76204;SDS011;64986;55.672;37.628;2023-01-16T08:00:54;18.63;;;5.30;;
76204;SDS011;64986;55.672;37.628;2023-01-16T08:03:21;23.88;;;6.20;;
76204;SDS011;64986;55.672;37.628;2023-01-16T08:05:47;12.73;;;4.18;;
76204;SDS011;64986;55.672;37.628;2023-01-16T08:08:15;16.23;;;5.97;;
76204;SDS011;64986;55.672;37.628;2023-01-16T08:10:41;17.58;;;5.60;;
76204;SDS011;64986;55.672;37.628;2023-01-16T08:13:07;20.30;;;6.05;;
76204;SDS011;64986;55.672;37.628;2023-01-16T08:15:33;21.77;;;6.07;;
76204;SDS011;64986;55.672;37.628;2023-01-16T08:17:58;18.70;;;5.53;;
76204;SDS011;64986;55.672;37.628;2023-01-16T08:20:24;13.88;;;5.28;;
76204;SDS011;64986;55.672;37.628;2023-01-16T08:22:52;24.33;;;8.35;;
76204;SDS011;64986;55.672;37.628;2023-01-16T08:25:19;17.15;;;6.15;;
76204;SDS011;64986;55.672;37.628;2023-01-16T08:27:46;16.65;;;6.07;;
76204;SDS011;64986;55.672;37.628;2023-01-16T08:30:12;27.50;;;7.93;;
76204;SDS011;64986;55.672;37.628;2023-01-16T08:32:39;14.30;;;6.03;;
76204;SDS011;64986;55.672;37.628;2023-01-16T08:35:05;16.33;;;5.93;;
76204;SDS011;64986;55.672;37.628;2023-01-16T08:37:32;15.00;;;5.28;;
76204;SDS011;64986;55.672;37.628;2023-01-16T08:39:58;21.08;;;7.72;;
76204;SDS011;64986;55.672;37.628;2023-01-16T08:42:23;16.20;;;5.88;;
76204;SDS011;64986;55.672;37.628;2023-01-16T08:45:13;24.52;;;7.20;;
76204;SDS011;64986;55.672;37.628;2023-01-16T08:47:58;30.23;;;6.43;;
76204;SDS011;64986;55.672;37.628;2023-01-16T08:50:46;19.88;;;6.72;;
76204;SDS011;64986;55.672;37.628;2023-01-16T08:53:31;16.13;;;5.65;;
76204;SDS011;64986;55.672;37.628;2023-01-16T08:55:57;15.63;;;5.32;;
76204;SDS011;64986;55.672;37.628;2023-01-16T08:58:23;14.60;;;6.38;;
76204;SDS011;64986;55.672;37.628;2023-01-16T09:00:49;13.27;;;5.43;;
76204;SDS011;64986;55.672;37.628;2023-01-16T09:03:15;18.25;;;5.18;;
76204;SDS011;64986;55.672;37.628;2023-01-16T09:05:44;13.00;;;5.80;;
76204;SDS011;64986;55.672;37.628;2023-01-16T09:08:10;17.45;;;5.88;;
76204;SDS011;64986;55.672;37.628;2023-01-16T09:10:36;12.23;;;6.47;;
76204;SDS011;64986;55.672;37.628;2023-01-16T09:13:02;15.52;;;5.70;;
76204;SDS011;64986;55.672;37.628;2023-01-16T09:15:46;17.65;;;6.75;;
76204;SDS011;64986;55.672;37.628;2023-01-16T09:18:12;15.00;;;5.47;;
76204;SDS011;64986;55.672;37.628;2023-01-16T09:20:37;23.05;;;6.80;;
76204;SDS011;64986;55.672;37.628;2023-01-16T09:23:03;17.73;;;6.13;;
76204;SDS011;64986;55.672;37.628;2023-01-16T09:25:29;13.55;;;5.78;;
76204;SDS011;64986;55.672;37.628;2023-01-16T09:27:56;18.95;;;6.63;;
76204;SDS011;64986;55.672;37.628;2023-01-16T09:30:22;21.50;;;6.53;;
76204;SDS011;64986;55.672;37.628;2023-01-16T09:32:48;17.38;;;5.65;;
76204;SDS011;64986;55.672;37.628;2023-01-16T09:35:14;17.50;;;5.97;;
76204;SDS011;64986;55.672;37.628;2023-01-16T09:37:42;18.17;;;6.45;;
76204;SDS011;64986;55.672;37.628;2023-01-16T09:40:10;11.35;;;4.93;;
76204;SDS011;64986;55.672;37.628;2023-01-16T09:45:54;18.23;;;6.20;;
76204;SDS011;64986;55.672;37.628;2023-01-16T09:48:26;14.18;;;5.82;;
76204;SDS011;64986;55.672;37.628;2023-01-16T09:50:57;14.98;;;6.00;;
76204;SDS011;64986;55.672;37.628;2023-01-16T09:53:32;22.02;;;6.25;;
76204;SDS011;64986;55.672;37.628;2023-01-16T09:56:31;18.00;;;5.97;;
76204;SDS011;64986;55.672;37.628;2023-01-16T09:59:30;9.98;;;5.18;;
76204;SDS011;64986;55.672;37.628;2023-01-16T10:02:07;12.95;;;4.93;;
76204;SDS011;64986;55.672;37.628;2023-01-16T10:04:38;16.73;;;5.28;;
76204;SDS011;64986;55.672;37.628;2023-01-16T10:13:56;17.48;;;6.82;;
76204;SDS011;64986;55.672;37.628;2023-01-16T10:16:13;20.88;;;6.22;;
76204;SDS011;64986;55.672;37.628;2023-01-16T10:30:12;17.98;;;5.90;;
76204;SDS011;64986;55.672;37.628;2023-01-16T10:32:43;16.83;;;6.78;;
76204;SDS011;64986;55.672;37.628;2023-01-16T10:35:20;26.23;;;5.90;;
76204;SDS011;64986;55.672;37.628;2023-01-16T10:37:49;6.72;;;3.88;;
76204;SDS011;64986;55.672;37.628;2023-01-16T10:40:18;16.58;;;5.30;;
76204;SDS011;64986;55.672;37.628;2023-01-16T10:43:09;11.40;;;5.25;;
76204;SDS011;64986;55.672;37.628;2023-01-16T10:46:00;11.98;;;5.57;;
76204;SDS011;64986;55.672;37.628;2023-01-16T10:48:56;17.65;;;6.43;;
76204;SDS011;64986;55.672;37.628;2023-01-16T10:51:57;18.90;;;5.97;;
76204;SDS011;64986;55.672;37.628;2023-01-16T10:54:26;17.45;;;4.75;;
76204;SDS011;64986;55.672;37.628;2023-01-16T10:56:52;14.20;;;4.97;;
76204;SDS011;64986;55.672;37.628;2023-01-16T10:59:18;14.25;;;5.15;;
76204;SDS011;64986;55.672;37.628;2023-01-16T11:01:46;13.82;;;5.53;;
76204;SDS011;64986;55.672;37.628;2023-01-16T11:04:17;15.43;;;5.90;;
76204;SDS011;64986;55.672;37.628;2023-01-16T11:06:43;15.07;;;6.45;;
76204;SDS011;64986;55.672;37.628;2023-01-16T11:11:39;15.50;;;6.03;;
76204;SDS011;64986;55.672;37.628;2023-01-16T11:14:39;9.90;;;4.88;;
76204;SDS011;64986;55.672;37.628;2023-01-16T11:17:29;12.90;;;7.15;;
76204;SDS011;64986;55.672;37.628;2023-01-16T11:20:18;13.93;;;5.95;;
76204;SDS011;64986;55.672;37.628;2023-01-16T11:22:55;12.88;;;6.18;;
76204;SDS011;64986;55.672;37.628;2023-01-16T11:25:23;17.52;;;6.22;;
76204;SDS011;64986;55.672;37.628;2023-01-16T11:27:50;12.05;;;5.50;;
76204;SDS011;64986;55.672;37.628;2023-01-16T11:30:18;15.55;;;6.80;;
76204;SDS011;64986;55.672;37.628;2023-01-16T11:32:47;16.05;;;5.60;;
76204;SDS011;64986;55.672;37.628;2023-01-16T11:35:15;11.45;;;5.35;;
76204;SDS011;64986;55.672;37.628;2023-01-16T11:37:43;15.85;;;6.00;;
76204;SDS011;64986;55.672;37.628;2023-01-16T11:40:20;13.43;;;5.22;;
76204;SDS011;64986;55.672;37.628;2023-01-16T11:42:53;13.38;;;5.47;;
76204;SDS011;64986;55.672;37.628;2023-01-16T11:45:45;15.40;;;5.70;;
76204;SDS011;64986;55.672;37.628;2023-01-16T11:48:27;14.27;;;5.32;;
76204;SDS011;64986;55.672;37.628;2023-01-16T11:51:19;10.40;;;5.10;;
76204;SDS011;64986;55.672;37.628;2023-01-16T11:53:48;12.40;;;5.47;;
76204;SDS011;64986;55.672;37.628;2023-01-16T12:05:04;9.93;;;4.20;;
76204;SDS011;64986;55.672;37.628;2023-01-16T12:13:26;13.85;;;5.90;;
76204;SDS011;64986;55.672;37.628;2023-01-16T12:21:59;12.55;;;5.28;;
76204;SDS011;64986;55.672;37.628;2023-01-16T12:25:29;16.20;;;6.65;;
76204;SDS011;64986;55.672;37.628;2023-01-16T12:33:57;14.45;;;5.80;;
76204;SDS011;64986;55.672;37.628;2023-01-16T12:41:32;11.30;;;5.00;;
76204;SDS011;64986;55.672;37.628;2023-01-16T12:58:34;10.70;;;5.03;;
76204;SDS011;64986;55.672;37.628;2023-01-16T13:01:10;12.57;;;5.60;;
76204;SDS011;64986;55.672;37.628;2023-01-16T13:07:02;15.55;;;6.22;;
76204;SDS011;64986;55.672;37.628;2023-01-16T13:12:13;13.95;;;6.22;;
76204;SDS011;64986;55.672;37.628;2023-01-16T13:15:20;10.30;;;6.20;;
76204;SDS011;64986;55.672;37.628;2023-01-16T13:17:56;16.58;;;7.75;;
76204;SDS011;64986;55.672;37.628;2023-01-16T13:20:28;14.45;;;7.63;;
76204;SDS011;64986;55.672;37.628;2023-01-16T13:31:07;12.52;;;5.93;;
76204;SDS011;64986;55.672;37.628;2023-01-16T13:33:42;12.02;;;6.07;;
76204;SDS011;64986;55.672;37.628;2023-01-16T13:42:05;16.50;;;7.03;;
76204;SDS011;64986;55.672;37.628;2023-01-16T13:44:35;16.27;;;6.47;;
76204;SDS011;64986;55.672;37.628;2023-01-16T13:47:25;13.77;;;7.03;;
76204;SDS011;64986;55.672;37.628;2023-01-16T13:50:00;14.38;;;6.82;;
76204;SDS011;64986;55.672;37.628;2023-01-16T13:52:47;14.45;;;5.90;;
76204;SDS011;64986;55.672;37.628;2023-01-16T14:00:39;17.30;;;7.40;;
76204;SDS011;64986;55.672;37.628;2023-01-16T14:03:24;12.98;;;5.57;;
76204;SDS011;64986;55.672;37.628;2023-01-16T14:08:20;17.10;;;6.72;;
76204;SDS011;64986;55.672;37.628;2023-01-16T14:17:29;17.27;;;8.18;;
76204;SDS011;64986;55.672;37.628;2023-01-16T14:20:35;12.63;;;6.93;;
76204;SDS011;64986;55.672;37.628;2023-01-16T14:23:17;14.70;;;6.65;;
76204;SDS011;64986;55.672;37.628;2023-01-16T14:26:18;23.73;;;8.82;;
76204;SDS011;64986;55.672;37.628;2023-01-16T14:29:00;20.77;;;8.52;;
76204;SDS011;64986;55.672;37.628;2023-01-16T14:31:37;18.58;;;8.20;;
76204;SDS011;64986;55.672;37.628;2023-01-16T14:34:14;18.38;;;6.72;;
76204;SDS011;64986;55.672;37.628;2023-01-16T14:37:05;21.90;;;6.63;;
76204;SDS011;64986;55.672;37.628;2023-01-16T14:39:46;18.95;;;8.25;;
76204;SDS011;64986;55.672;37.628;2023-01-16T14:48:14;20.30;;;8.48;;
76204;SDS011;64986;55.672;37.628;2023-01-16T14:53:58;20.45;;;9.77;;
76204;SDS011;64986;55.672;37.628;2023-01-16T14:56:50;18.67;;;8.32;;
76204;SDS011;64986;55.672;37.628;2023-01-16T14:59:24;20.90;;;9.48;;
76204;SDS011;64986;55.672;37.628;2023-01-16T15:02:02;20.40;;;8.95;;
76204;SDS011;64986;55.672;37.628;2023-01-16T15:04:55;19.80;;;7.25;;
76204;SDS011;64986;55.672;37.628;2023-01-16T15:07:54;18.40;;;8.05;;
76204;SDS011;64986;55.672;37.628;2023-01-16T15:10:17;20.02;;;8.20;;
76204;SDS011;64986;55.672;37.628;2023-01-16T15:12:44;33.78;;;10.48;;
76204;SDS011;64986;55.672;37.628;2023-01-16T15:15:26;23.40;;;8.88;;
76204;SDS011;64986;55.672;37.628;2023-01-16T15:17:56;19.05;;;8.48;;
76204;SDS011;64986;55.672;37.628;2023-01-16T15:20:42;32.30;;;9.38;;
76204;SDS011;64986;55.672;37.628;2023-01-16T15:23:31;22.73;;;9.82;;
76204;SDS011;64986;55.672;37.628;2023-01-16T15:31:13;29.63;;;8.63;;
76204;SDS011;64986;55.672;37.628;2023-01-16T15:33:39;22.20;;;8.40;;
76204;SDS011;64986;55.672;37.628;2023-01-16T15:39:00;20.83;;;8.32;;
76204;SDS011;64986;55.672;37.628;2023-01-16T15:41:32;24.23;;;8.18;;
76204;SDS011;64986;55.672;37.628;2023-01-16T15:44:17;25.80;;;8.25;;
76204;SDS011;64986;55.672;37.628;2023-01-16T15:47:46;17.90;;;6.80;;
76204;SDS011;64986;55.672;37.628;2023-01-16T15:50:04;22.98;;;7.22;;
76204;SDS011;64986;55.672;37.628;2023-01-16T15:52:34;21.70;;;8.50;;
76204;SDS011;64986;55.672;37.628;2023-01-16T15:55:11;18.85;;;7.50;;
76204;SDS011;64986;55.672;37.628;2023-01-16T15:57:44;20.02;;;8.30;;
76204;SDS011;64986;55.672;37.628;2023-01-16T16:00:44;23.75;;;9.48;;
76204;SDS011;64986;55.672;37.628;2023-01-16T16:03:10;21.88;;;9.70;;
76204;SDS011;64986;55.672;37.628;2023-01-16T16:05:47;24.92;;;9.23;;
76204;SDS011;64986;55.672;37.628;2023-01-16T16:08:16;22.42;;;9.32;;
76204;SDS011;64986;55.672;37.628;2023-01-16T16:10:45;15.88;;;6.93;;
76204;SDS011;64986;55.672;37.628;2023-01-16T16:13:30;24.92;;;9.30;;
76204;SDS011;64986;55.672;37.628;2023-01-16T16:15:59;26.70;;;8.45;;
76204;SDS011;64986;55.672;37.628;2023-01-16T16:18:52;22.17;;;8.07;;
76204;SDS011;64986;55.672;37.628;2023-01-16T16:21:19;25.77;;;8.50;;
76204;SDS011;64986;55.672;37.628;2023-01-16T16:23:55;21.63;;;8.02;;
76204;SDS011;64986;55.672;37.628;2023-01-16T16:28:49;24.17;;;10.07;;
76204;SDS011;64986;55.672;37.628;2023-01-16T16:31:22;25.73;;;8.40;;
76204;SDS011;64986;55.672;37.628;2023-01-16T16:33:53;20.30;;;7.90;;
76204;SDS011;64986;55.672;37.628;2023-01-16T16:36:21;30.55;;;10.00;;
76204;SDS011;64986;55.672;37.628;2023-01-16T16:38:48;28.23;;;9.77;;
76204;SDS011;64986;55.672;37.628;2023-01-16T16:43:47;25.00;;;9.07;;
76204;SDS011;64986;55.672;37.628;2023-01-16T16:48:51;17.08;;;7.93;;
76204;SDS011;64986;55.672;37.628;2023-01-16T16:51:35;27.23;;;10.45;;
76204;SDS011;64986;55.672;37.628;2023-01-16T16:54:11;20.88;;;8.52;;
76204;SDS011;64986;55.672;37.628;2023-01-16T16:56:41;26.58;;;9.05;;
76204;SDS011;64986;55.672;37.628;2023-01-16T16:59:15;26.25;;;9.55;;
76204;SDS011;64986;55.672;37.628;2023-01-16T17:01:44;19.67;;;9.25;;
76204;SDS011;64986;55.672;37.628;2023-01-16T17:04:17;21.92;;;9.48;;
76204;SDS011;64986;55.672;37.628;2023-01-16T17:06:44;25.25;;;8.75;;
76204;SDS011;64986;55.672;37.628;2023-01-16T17:09:13;24.30;;;9.60;;
76204;SDS011;64986;55.672;37.628;2023-01-16T17:11:42;22.98;;;8.60;;
76204;SDS011;64986;55.672;37.628;2023-01-16T17:14:08;19.85;;;7.82;;
76204;SDS011;64986;55.672;37.628;2023-01-16T17:16:34;19.35;;;7.85;;
76204;SDS011;64986;55.672;37.628;2023-01-16T17:19:04;22.15;;;7.70;;
76204;SDS011;64986;55.672;37.628;2023-01-16T17:21:38;21.33;;;7.25;;
76204;SDS011;64986;55.672;37.628;2023-01-16T17:24:04;24.45;;;7.68;;
76204;SDS011;64986;55.672;37.628;2023-01-16T17:26:30;21.15;;;9.27;;
76204;SDS011;64986;55.672;37.628;2023-01-16T17:28:55;26.38;;;9.55;;
76204;SDS011;64986;55.672;37.628;2023-01-16T17:31:21;22.77;;;7.80;;
76204;SDS011;64986;55.672;37.628;2023-01-16T17:33:47;25.02;;;8.63;;
76204;SDS011;64986;55.672;37.628;2023-01-16T17:36:17;21.67;;;8.70;;
76204;SDS011;64986;55.672;37.628;2023-01-16T17:38:47;24.10;;;8.57;;